createdAt,value
2023-04-23T00:00:25.950Z,1.43
2023-04-23T00:02:58.767Z,1.47
2023-04-23T00:05:30.831Z,1.93
2023-04-23T00:08:03.025Z,1.60
2023-04-23T00:10:32.915Z,2.30
2023-04-23T00:13:02.612Z,1.90
2023-04-23T00:15:32.670Z,2.17
2023-04-23T00:18:02.157Z,1.97
2023-04-23T00:20:31.711Z,2.37
2023-04-23T00:23:01.660Z,2.20
2023-04-23T00:25:31.151Z,1.80
2023-04-23T00:28:00.642Z,1.70
2023-04-23T00:30:30.366Z,1.60
2023-04-23T00:32:59.948Z,1.50
2023-04-23T00:35:29.420Z,1.90
2023-04-23T00:37:58.895Z,1.43
2023-04-23T00:40:28.393Z,1.60
2023-04-23T00:42:59.188Z,1.60
2023-04-23T00:45:28.789Z,1.30
2023-04-23T00:47:59.207Z,1.53
2023-04-23T00:50:28.781Z,1.27
2023-04-23T00:52:58.339Z,1.50
2023-04-23T00:55:27.960Z,1.20
2023-04-23T00:57:57.720Z,2.00
2023-04-23T01:00:27.355Z,1.90
2023-04-23T01:02:58.373Z,1.70
2023-04-23T01:05:28.655Z,1.67
2023-04-23T01:07:58.329Z,1.60
2023-04-23T01:10:27.877Z,1.67
2023-04-23T01:12:57.366Z,1.57
2023-04-23T01:15:26.851Z,2.30
2023-04-23T01:17:57.262Z,1.70
2023-04-23T01:20:26.743Z,1.30
2023-04-23T01:22:56.735Z,1.80
2023-04-23T01:25:26.371Z,1.47
2023-04-23T01:27:57.055Z,1.37
2023-04-23T01:30:28.719Z,1.53
2023-04-23T01:32:58.779Z,1.93
2023-04-23T01:35:29.319Z,1.43
2023-04-23T01:38:01.610Z,1.43
2023-04-23T01:40:31.566Z,1.43
2023-04-23T01:43:02.275Z,2.03
2023-04-23T01:45:32.977Z,1.87
2023-04-23T01:48:03.062Z,1.47
2023-04-23T01:50:32.835Z,1.60
2023-04-23T01:53:02.331Z,1.60
2023-04-23T01:55:32.428Z,1.63
2023-04-23T01:58:02.275Z,1.20
2023-04-23T02:00:31.752Z,1.83
2023-04-23T02:03:01.565Z,1.40
2023-04-23T02:05:33.486Z,1.17
2023-04-23T02:08:04.138Z,0.90
2023-04-23T02:10:33.735Z,1.00
2023-04-23T02:13:05.624Z,1.20
2023-04-23T02:15:35.461Z,1.10
2023-04-23T02:18:05.790Z,0.93
2023-04-23T02:20:37.036Z,1.00
2023-04-23T02:23:06.979Z,0.83
2023-04-23T02:25:38.559Z,1.10
2023-04-23T02:28:08.957Z,0.87
2023-04-23T02:30:40.282Z,1.03
2023-04-23T02:33:09.766Z,1.13
2023-04-23T02:35:39.247Z,1.10
2023-04-23T02:38:08.750Z,1.00
2023-04-23T02:40:38.254Z,1.00
2023-04-23T02:43:07.827Z,0.77
2023-04-23T02:45:37.296Z,1.30
2023-04-23T02:48:06.794Z,1.13
2023-04-23T02:50:36.280Z,1.20
2023-04-23T02:53:08.956Z,0.93
2023-04-23T02:55:38.434Z,1.00
2023-04-23T02:58:07.929Z,0.80
2023-04-23T03:00:37.497Z,1.00
2023-04-23T03:03:07.045Z,1.00
2023-04-23T03:05:36.538Z,1.07
2023-04-23T03:08:06.021Z,1.57
2023-04-23T03:10:35.499Z,1.60
2023-04-23T03:13:05.377Z,1.20
2023-04-23T03:15:34.865Z,1.40
2023-04-23T03:18:06.041Z,1.10
2023-04-23T03:20:37.123Z,1.20
2023-04-23T03:23:06.617Z,1.07
2023-04-23T03:25:36.266Z,0.90
2023-04-23T03:28:05.754Z,1.13
2023-04-23T03:30:35.531Z,0.87
2023-04-23T03:33:05.022Z,1.03
2023-04-23T03:35:34.509Z,1.27
2023-04-23T03:38:04.003Z,1.27
2023-04-23T03:40:33.489Z,1.00
2023-04-23T03:43:03.043Z,0.87
2023-04-23T03:45:33.179Z,1.10
2023-04-23T03:48:02.672Z,1.00
2023-04-23T03:50:33.785Z,1.30
2023-04-23T03:53:03.293Z,1.20
2023-04-23T03:55:32.770Z,1.10
2023-04-23T03:58:02.298Z,0.87
2023-04-23T04:00:31.854Z,1.00
2023-04-23T04:03:02.281Z,1.00
2023-04-23T04:05:31.920Z,1.00
2023-04-23T04:08:01.828Z,1.07
2023-04-23T04:10:31.303Z,1.20
2023-04-23T04:13:01.466Z,1.10
2023-04-23T04:15:32.363Z,1.07
2023-04-23T04:18:01.940Z,0.97
2023-04-23T04:20:31.534Z,1.10
2023-04-23T04:23:01.077Z,0.90
2023-04-23T04:25:30.636Z,1.00
2023-04-23T04:28:00.547Z,1.13
2023-04-23T04:30:30.149Z,1.23
2023-04-23T04:33:01.481Z,1.30
2023-04-23T04:35:31.174Z,1.00
2023-04-23T04:38:00.718Z,1.20
2023-04-23T04:40:30.540Z,0.93
2023-04-23T04:43:00.233Z,1.10
2023-04-23T04:45:29.712Z,1.20
2023-04-23T04:47:59.272Z,1.07
2023-04-23T04:50:28.761Z,1.10
2023-04-23T04:52:58.252Z,1.00
2023-04-23T04:55:27.767Z,1.20
2023-04-23T04:57:57.832Z,0.90
2023-04-23T05:00:30.517Z,0.80
2023-04-23T05:03:01.129Z,1.10
2023-04-23T05:05:30.853Z,0.90
2023-04-23T05:08:02.146Z,0.87
2023-04-23T05:10:32.215Z,0.80
2023-04-23T05:13:02.713Z,0.80
2023-04-23T05:15:32.273Z,0.90
2023-04-23T05:18:03.373Z,1.20
2023-04-23T05:20:33.418Z,0.93
2023-04-23T05:23:02.976Z,0.90
2023-04-23T05:25:34.563Z,1.50
2023-04-23T05:28:04.308Z,1.50
2023-04-23T05:30:33.797Z,1.10
2023-04-23T05:33:03.347Z,1.10
2023-04-23T05:35:33.129Z,1.00
2023-04-23T05:38:02.807Z,0.93
2023-04-23T05:40:32.535Z,0.90
2023-04-23T05:43:02.293Z,0.80
2023-04-23T05:45:31.786Z,0.80
2023-04-23T05:48:01.411Z,0.73
2023-04-23T05:50:31.001Z,0.90
2023-04-23T05:53:00.562Z,0.73
2023-04-23T05:55:30.030Z,0.83
2023-04-23T05:57:59.719Z,0.90
2023-04-23T06:00:29.572Z,0.87
2023-04-23T06:02:59.308Z,0.53
2023-04-23T06:05:28.894Z,1.00
2023-04-23T06:07:58.533Z,0.80
2023-04-23T06:10:28.054Z,0.67
2023-04-23T06:12:57.575Z,0.83
2023-04-23T06:15:27.291Z,0.60
2023-04-23T06:17:56.858Z,1.30
2023-04-23T06:20:27.730Z,0.93
2023-04-23T06:22:57.225Z,0.90
2023-04-23T06:25:26.802Z,0.90
2023-04-23T06:27:58.183Z,0.80
2023-04-23T06:30:27.672Z,0.70
2023-04-23T06:32:57.241Z,0.93
2023-04-23T06:35:26.755Z,0.90
2023-04-23T06:37:56.624Z,0.87
2023-04-23T06:40:26.174Z,0.98
2023-04-23T06:42:55.847Z,1.00
2023-04-23T06:45:25.400Z,0.80
2023-04-23T06:47:54.889Z,0.80
2023-04-23T06:50:24.476Z,0.90
2023-04-23T06:52:54.123Z,1.00
2023-04-23T06:55:25.248Z,0.60
2023-04-23T06:57:55.368Z,0.73
2023-04-23T07:00:25.830Z,0.70
2023-04-23T07:02:55.424Z,0.70
2023-04-23T07:05:24.993Z,1.00
2023-04-23T07:07:54.490Z,1.23
2023-04-23T07:10:23.978Z,0.67
2023-04-23T07:12:53.463Z,0.90
2023-04-23T07:15:22.998Z,0.90
2023-04-23T07:17:52.520Z,0.87
2023-04-23T07:20:22.002Z,0.70
2023-04-23T07:22:51.487Z,1.13
2023-04-23T07:25:22.574Z,0.80
2023-04-23T07:27:52.047Z,0.80
2023-04-23T07:30:22.068Z,1.20
2023-04-23T07:32:51.848Z,1.40
2023-04-23T07:35:21.504Z,1.00
2023-04-23T07:37:52.633Z,1.30
2023-04-23T07:40:25.811Z,0.97
2023-04-23T07:42:55.459Z,1.17
2023-04-23T07:45:25.434Z,1.10
2023-04-23T07:47:54.934Z,0.90
2023-04-23T07:50:24.492Z,0.83
2023-04-23T07:52:54.023Z,1.10
2023-04-23T07:55:23.576Z,0.80
2023-04-23T07:57:53.070Z,0.90
2023-04-23T08:00:22.551Z,0.80
2023-04-23T08:02:53.030Z,1.23
2023-04-23T08:05:22.719Z,1.00
2023-04-23T08:07:52.274Z,0.80
2023-04-23T08:10:21.823Z,0.90
2023-04-23T08:12:51.376Z,1.13
2023-04-23T08:15:21.108Z,0.90
2023-04-23T08:17:50.761Z,1.10
2023-04-23T08:20:20.622Z,0.90
2023-04-23T08:22:50.214Z,0.80
2023-04-23T08:25:19.941Z,0.93
2023-04-23T08:27:49.979Z,1.00
2023-04-23T08:30:19.480Z,1.07
2023-04-23T08:33:10.019Z,1.00
2023-04-23T08:35:39.822Z,1.40
2023-04-23T08:38:09.390Z,1.23
2023-04-23T08:40:41.408Z,1.23
2023-04-23T08:43:24.096Z,0.80
2023-04-23T08:45:54.983Z,1.20
2023-04-23T08:48:25.186Z,0.83
2023-04-23T08:50:55.197Z,0.70
2023-04-23T08:53:32.506Z,0.60
2023-04-23T08:56:03.517Z,0.80
2023-04-23T08:58:33.930Z,0.50
2023-04-23T09:01:05.440Z,0.73
2023-04-23T09:03:36.472Z,0.60
2023-04-23T09:06:06.254Z,0.33
2023-04-23T09:08:36.305Z,0.50
2023-04-23T09:11:08.236Z,0.43
2023-04-23T09:13:38.020Z,0.40
2023-04-23T09:16:07.820Z,0.60
2023-04-23T09:18:38.325Z,0.50
2023-04-23T09:21:09.365Z,0.70
2023-04-23T09:23:41.423Z,0.60
2023-04-23T09:26:10.973Z,0.50
2023-04-23T09:28:40.501Z,0.90
2023-04-23T09:31:10.675Z,0.90
2023-04-23T09:33:40.740Z,0.93
2023-04-23T09:36:16.284Z,1.20
2023-04-23T09:38:45.798Z,0.87
2023-04-23T09:41:26.661Z,1.30
2023-04-23T09:43:57.658Z,1.50
2023-04-23T09:46:45.301Z,1.37
2023-04-23T09:49:16.001Z,1.30
2023-04-23T09:51:49.094Z,1.20
2023-04-23T09:54:25.415Z,1.40
2023-04-23T09:57:01.255Z,1.50
2023-04-23T09:59:46.902Z,1.10
2023-04-23T10:02:11.506Z,1.43
2023-04-23T10:04:42.186Z,1.50
2023-04-23T10:07:19.492Z,1.40
2023-04-23T10:09:44.987Z,1.97
2023-04-23T10:14:50.973Z,1.77
2023-04-23T10:17:20.682Z,1.50
2023-04-23T10:19:52.527Z,1.50
2023-04-23T10:22:26.158Z,1.50
2023-04-23T10:24:59.963Z,2.27
2023-04-23T10:27:40.441Z,2.03
2023-04-23T10:30:06.525Z,3.20
2023-04-23T10:32:37.018Z,2.40
2023-04-23T10:35:09.185Z,2.20
2023-04-23T10:37:40.050Z,1.80
2023-04-23T10:40:18.342Z,2.10
2023-04-23T10:42:50.470Z,1.60
2023-04-23T10:45:25.385Z,1.57
2023-04-23T10:47:56.357Z,1.70
2023-04-23T10:50:37.803Z,1.80
2023-04-23T10:53:12.726Z,2.40
2023-04-23T10:55:43.845Z,1.60
2023-04-23T10:58:13.336Z,2.00
2023-04-23T11:00:47.759Z,1.50
2023-04-23T11:03:44.589Z,1.90
2023-04-23T11:06:17.585Z,1.70
2023-04-23T11:08:56.720Z,1.80
2023-04-23T11:11:43.982Z,2.00
2023-04-23T11:14:14.966Z,1.70
2023-04-23T11:16:44.517Z,1.60
2023-04-23T11:19:17.371Z,1.93
2023-04-23T11:22:14.775Z,2.00
2023-04-23T11:24:48.804Z,1.93
2023-04-23T11:27:20.382Z,2.33
2023-04-23T11:29:50.345Z,2.50
2023-04-23T11:32:20.088Z,2.13
2023-04-23T11:34:51.172Z,2.10
2023-04-23T11:37:21.109Z,2.47
2023-04-23T11:39:51.694Z,2.33
2023-04-23T11:42:21.872Z,2.23
2023-04-23T11:44:51.382Z,2.07
2023-04-23T11:47:21.239Z,2.20
2023-04-23T11:49:51.172Z,1.63
2023-04-23T11:52:20.665Z,1.70
2023-04-23T11:54:50.191Z,1.67
2023-04-23T11:57:19.680Z,1.60
2023-04-23T11:59:49.191Z,1.47
2023-04-23T12:02:18.845Z,1.60
2023-04-23T12:04:48.472Z,1.57
2023-04-23T12:07:26.745Z,1.53
2023-04-23T12:09:57.767Z,1.40
2023-04-23T12:12:36.088Z,1.37
2023-04-23T12:15:08.859Z,1.73
2023-04-23T12:17:38.415Z,1.40
2023-04-23T12:20:14.232Z,1.33
2023-04-23T12:22:43.738Z,0.93
2023-04-23T12:25:13.420Z,1.27
2023-04-23T12:27:45.917Z,1.20
2023-04-23T12:30:15.641Z,1.03
2023-04-23T12:32:46.040Z,1.00
2023-04-23T12:35:15.780Z,1.00
2023-04-23T12:37:45.411Z,1.00
2023-04-23T12:40:14.986Z,0.50
2023-04-23T12:42:44.513Z,1.30
2023-04-23T12:45:14.026Z,1.13
2023-04-23T12:47:43.551Z,1.63
2023-04-23T12:50:13.719Z,1.20
2023-04-23T12:52:44.585Z,0.80
2023-04-23T12:55:14.179Z,0.80
2023-04-23T12:57:43.704Z,0.90
2023-04-23T13:00:13.800Z,0.90
2023-04-23T13:02:43.495Z,0.80
2023-04-23T13:05:13.125Z,0.90
2023-04-23T13:07:43.636Z,0.87
2023-04-23T13:10:13.630Z,0.70
2023-04-23T13:12:44.095Z,0.90
2023-04-23T13:15:14.242Z,0.67
2023-04-23T13:17:43.784Z,0.70
2023-04-23T13:20:13.355Z,0.90
2023-04-23T13:22:42.855Z,0.67
2023-04-23T13:25:12.513Z,0.83
2023-04-23T13:27:41.977Z,0.60
2023-04-23T13:30:11.920Z,0.50
2023-04-23T13:32:41.537Z,0.87
2023-04-23T13:35:11.506Z,0.90
2023-04-23T13:37:41.645Z,0.63
2023-04-23T13:40:12.071Z,0.80
2023-04-23T13:42:41.761Z,0.43
2023-04-23T13:45:13.534Z,1.10
2023-04-23T13:47:43.210Z,0.90
2023-04-23T13:50:13.228Z,0.80
2023-04-23T13:52:42.770Z,0.60
2023-04-23T13:55:12.407Z,0.43
2023-04-23T13:57:42.254Z,0.50
2023-04-23T14:00:12.861Z,0.50
2023-04-23T14:02:42.416Z,0.40
2023-04-23T14:05:12.141Z,0.50
2023-04-23T14:07:41.651Z,0.43
2023-04-23T14:10:11.472Z,0.40
2023-04-23T14:12:41.110Z,0.37
2023-04-23T14:15:11.536Z,0.37
2023-04-23T14:17:43.105Z,0.40
2023-04-23T14:20:15.207Z,0.47
2023-04-23T14:22:50.956Z,0.60
2023-04-23T14:25:31.074Z,0.40
2023-04-23T14:28:05.603Z,0.30
2023-04-23T14:30:36.686Z,0.40
2023-04-23T14:33:06.305Z,0.30
2023-04-23T14:35:42.480Z,0.30
2023-04-23T14:38:07.058Z,0.30
2023-04-23T14:40:36.604Z,0.37
2023-04-23T14:43:15.055Z,0.40
2023-04-23T14:45:38.012Z,0.40
2023-04-23T14:48:07.513Z,0.40
2023-04-23T14:50:37.167Z,0.20
2023-04-23T14:53:07.801Z,0.30
2023-04-23T14:55:38.702Z,0.20
2023-04-23T14:58:08.211Z,0.43
2023-04-23T15:00:37.912Z,0.40
2023-04-23T15:03:09.191Z,0.30
2023-04-23T15:05:40.614Z,0.23
2023-04-23T15:08:13.436Z,0.40
2023-04-23T15:10:44.881Z,0.20
2023-04-23T15:13:33.842Z,0.40
2023-04-23T15:16:07.783Z,0.30
2023-04-23T15:18:37.816Z,0.30
2023-04-23T15:21:07.346Z,0.20
2023-04-23T15:23:36.838Z,0.27
2023-04-23T15:26:06.372Z,0.23
2023-04-23T15:28:36.323Z,0.30
2023-04-23T15:31:06.484Z,0.37
2023-04-23T15:33:36.075Z,0.43
2023-04-23T15:36:05.805Z,0.30
2023-04-23T15:38:35.453Z,0.30
2023-04-23T15:41:05.259Z,0.30
2023-04-23T15:43:34.883Z,0.30
2023-04-23T15:46:04.526Z,0.30
2023-04-23T15:48:34.070Z,0.30
2023-04-23T15:51:03.608Z,0.20
2023-04-23T15:53:33.114Z,0.40
2023-04-23T15:56:02.631Z,0.20
2023-04-23T15:58:32.149Z,0.23
2023-04-23T16:01:02.915Z,0.23
2023-04-23T16:03:32.735Z,0.20
2023-04-23T16:06:02.582Z,0.20
2023-04-23T16:08:32.730Z,0.40
2023-04-23T16:11:03.522Z,0.30
2023-04-23T16:13:33.062Z,0.37
2023-04-23T16:16:03.061Z,0.30
2023-04-23T16:18:32.562Z,0.53
2023-04-23T16:21:02.093Z,0.40
2023-04-23T16:23:31.612Z,0.20
2023-04-23T16:26:01.847Z,0.27
2023-04-23T16:28:31.347Z,0.37
2023-04-23T16:31:00.894Z,0.30
2023-04-23T16:33:30.507Z,0.40
2023-04-23T16:36:00.957Z,0.30
2023-04-23T16:38:30.654Z,0.30
2023-04-23T16:41:00.375Z,0.30
2023-04-23T16:43:30.093Z,0.30
2023-04-23T16:46:00.146Z,0.23
2023-04-23T16:48:29.668Z,0.40
2023-04-23T16:50:59.199Z,0.50
2023-04-23T16:53:28.894Z,0.30
2023-04-23T16:55:58.664Z,0.30
2023-04-23T16:58:28.168Z,0.30
2023-04-23T17:00:57.972Z,0.40
2023-04-23T17:03:27.657Z,0.40
2023-04-23T17:06:31.099Z,0.40
2023-04-23T17:09:05.637Z,0.40
2023-04-23T17:11:35.861Z,0.30
2023-04-23T17:14:05.399Z,0.40
2023-04-23T17:16:35.022Z,0.33
2023-04-23T17:19:04.618Z,0.47
2023-04-23T17:21:34.160Z,0.40
2023-04-23T17:24:03.773Z,0.37
2023-04-23T17:26:33.301Z,0.40
2023-04-23T17:29:02.832Z,0.30
2023-04-23T17:31:32.412Z,0.30
2023-04-23T17:34:01.979Z,0.40
2023-04-23T17:36:31.780Z,0.30
2023-04-23T17:39:01.291Z,0.40
2023-04-23T17:41:30.808Z,0.20
2023-04-23T17:44:00.350Z,0.40
2023-04-23T17:46:29.875Z,0.30
2023-04-23T17:49:00.619Z,0.30
2023-04-23T17:51:30.180Z,0.30
2023-04-23T17:54:00.444Z,0.20
2023-04-23T17:56:31.161Z,0.20
2023-04-23T17:59:00.660Z,0.20
2023-04-23T18:01:30.268Z,0.20
2023-04-23T18:04:00.834Z,0.37
2023-04-23T18:06:30.732Z,0.30
2023-04-23T18:09:00.660Z,0.40
2023-04-23T18:11:30.158Z,0.30
2023-04-23T18:14:00.067Z,0.30
2023-04-23T18:16:29.573Z,0.20
2023-04-23T18:18:59.128Z,0.30
2023-04-23T18:21:30.184Z,0.43
2023-04-23T18:23:59.689Z,0.30
2023-04-23T18:26:29.400Z,0.40
2023-04-23T18:28:58.969Z,0.30
2023-04-23T18:31:28.501Z,0.30
2023-04-23T18:34:03.173Z,0.37
2023-04-23T18:36:36.098Z,0.40
2023-04-23T18:39:07.446Z,0.37
2023-04-23T18:41:37.386Z,0.40
2023-04-23T18:44:06.935Z,0.30
2023-04-23T18:46:36.679Z,0.50
2023-04-23T18:49:34.308Z,0.60
2023-04-23T18:52:03.811Z,0.60
2023-04-23T18:54:33.329Z,0.70
2023-04-23T18:57:03.219Z,0.50
2023-04-23T18:59:36.858Z,0.63
2023-04-23T19:02:07.475Z,0.90
2023-04-23T19:04:37.842Z,0.50
2023-04-23T19:07:07.626Z,0.50
2023-04-23T19:09:37.157Z,0.60
2023-04-23T19:12:06.921Z,0.60
2023-04-23T19:14:36.442Z,0.60
2023-04-23T19:17:05.956Z,0.60
2023-04-23T19:19:35.657Z,0.40
2023-04-23T19:22:05.164Z,0.47
2023-04-23T19:24:34.957Z,0.80
2023-04-23T19:27:05.502Z,0.80
2023-04-23T19:29:35.049Z,1.00
2023-04-23T19:32:04.616Z,1.20
2023-04-23T19:34:34.168Z,1.20
2023-04-23T19:37:03.654Z,1.20
2023-04-23T19:39:33.200Z,1.23
2023-04-23T19:42:02.915Z,1.10
2023-04-23T19:44:32.509Z,1.03
2023-04-23T19:47:02.191Z,1.00
2023-04-23T19:49:31.775Z,1.10
2023-04-23T19:52:03.296Z,0.70
2023-04-23T19:54:32.953Z,0.70
2023-04-23T19:57:03.321Z,0.87
2023-04-23T19:59:33.273Z,0.80
2023-04-23T20:02:02.786Z,0.90
2023-04-23T20:04:32.367Z,0.80
2023-04-23T20:07:01.966Z,0.83
2023-04-23T20:09:31.759Z,0.80
2023-04-23T20:12:01.794Z,0.80
2023-04-23T20:14:31.671Z,0.70
2023-04-23T20:17:01.511Z,0.60
2023-04-23T20:19:31.334Z,0.87
2023-04-23T20:22:00.970Z,0.80
2023-04-23T20:24:30.600Z,0.73
2023-04-23T20:27:01.474Z,0.93
2023-04-23T20:29:31.182Z,0.80
2023-04-23T20:32:00.996Z,0.70
2023-04-23T20:34:30.540Z,0.90
2023-04-23T20:37:01.095Z,0.90
2023-04-23T20:39:30.613Z,1.00
2023-04-23T20:42:01.218Z,0.77
2023-04-23T20:44:30.743Z,0.63
2023-04-23T20:47:01.907Z,0.60
2023-04-23T20:49:33.309Z,0.80
2023-04-23T20:52:02.815Z,0.80
2023-04-23T20:54:32.521Z,0.80
2023-04-23T20:57:02.274Z,1.00
2023-04-23T20:59:31.958Z,0.90
2023-04-23T21:02:01.593Z,1.07
2023-04-23T21:04:31.327Z,0.90
2023-04-23T21:07:00.971Z,0.90
2023-04-23T21:09:30.577Z,0.77
2023-04-23T21:12:00.814Z,0.90
2023-04-23T21:14:31.638Z,0.90
2023-04-23T21:17:01.146Z,0.80
2023-04-23T21:19:30.735Z,1.07
2023-04-23T21:22:00.237Z,0.93
2023-04-23T21:24:29.757Z,1.20
2023-04-23T21:26:59.266Z,1.20
2023-04-23T21:29:28.785Z,1.10
2023-04-23T21:31:58.293Z,0.80
2023-04-23T21:34:29.566Z,1.20
2023-04-23T21:36:59.077Z,0.90
2023-04-23T21:39:28.597Z,1.07
2023-04-23T21:41:58.116Z,1.10
2023-04-23T21:44:28.637Z,0.90
2023-04-23T21:46:58.225Z,0.70
2023-04-23T21:49:27.825Z,0.83
2023-04-23T21:51:57.332Z,0.90
2023-04-23T21:54:26.846Z,0.80
2023-04-23T21:56:56.426Z,0.90
2023-04-23T21:59:25.949Z,1.00
2023-04-23T22:01:55.535Z,0.83
2023-04-23T22:04:26.894Z,0.97
2023-04-23T22:06:57.134Z,1.30
2023-04-23T22:09:27.221Z,1.23
2023-04-23T22:14:27.955Z,1.10
2023-04-23T22:16:58.772Z,0.97
2023-04-23T22:19:31.460Z,1.03
2023-04-23T22:22:01.271Z,1.13
2023-04-23T22:24:30.874Z,1.27
2023-04-23T22:27:00.394Z,1.40
2023-04-23T22:29:30.290Z,1.10
2023-04-23T22:31:59.820Z,1.33
2023-04-23T22:34:29.395Z,1.40
2023-04-23T22:36:58.899Z,1.00
2023-04-23T22:39:28.422Z,1.20
2023-04-23T22:41:57.931Z,0.70
2023-04-23T22:44:27.442Z,1.03
2023-04-23T22:46:57.541Z,1.00
2023-04-23T22:49:27.509Z,1.00
2023-04-23T22:51:57.290Z,1.00
2023-04-23T22:54:26.875Z,1.00
2023-04-23T22:56:56.785Z,0.90
2023-04-23T22:59:26.306Z,1.00
2023-04-23T23:01:55.815Z,1.03
2023-04-23T23:04:25.348Z,1.10
2023-04-23T23:06:54.923Z,1.30
2023-04-23T23:09:24.516Z,1.00
2023-04-23T23:11:54.021Z,1.30
2023-04-23T23:14:23.552Z,1.30
2023-04-23T23:16:53.121Z,1.33
2023-04-23T23:19:22.873Z,1.40
2023-04-23T23:21:52.391Z,1.50
2023-04-23T23:24:22.863Z,1.50
2023-04-23T23:26:52.767Z,0.90
2023-04-23T23:29:22.300Z,0.77
2023-04-23T23:31:51.937Z,1.10
2023-04-23T23:34:21.467Z,1.30
2023-04-23T23:36:51.743Z,1.27
2023-04-23T23:39:21.286Z,1.50
2023-04-23T23:41:50.909Z,1.30
2023-04-23T23:44:20.667Z,1.50
2023-04-23T23:46:51.882Z,1.30
2023-04-23T23:49:21.598Z,1.30
2023-04-23T23:51:51.291Z,1.40
2023-04-23T23:54:20.886Z,1.17
2023-04-23T23:56:50.376Z,1.00
2023-04-23T23:59:19.904Z,0.90
